sensor_id;sensor_type;location;lat;lon;timestamp;P1;durP1;ratioP1;P2;durP2;ratioP2
74995;SDS011;63545;51.690;5.202;2022-12-07T00:01:27;15.75;;;8.13;;
74995;SDS011;63545;51.690;5.202;2022-12-07T00:03:55;16.20;;;8.75;;
74995;SDS011;63545;51.690;5.202;2022-12-07T00:06:31;21.30;;;8.80;;
74995;SDS011;63545;51.690;5.202;2022-12-07T00:08:57;17.88;;;9.30;;
74995;SDS011;63545;51.690;5.202;2022-12-07T00:11:23;19.03;;;9.07;;
74995;SDS011;63545;51.690;5.202;2022-12-07T00:13:55;17.57;;;10.23;;
74995;SDS011;63545;51.690;5.202;2022-12-07T00:16:23;20.50;;;10.13;;
74995;SDS011;63545;51.690;5.202;2022-12-07T00:18:53;19.13;;;9.80;;
74995;SDS011;63545;51.690;5.202;2022-12-07T00:23:45;17.73;;;10.18;;
74995;SDS011;63545;51.690;5.202;2022-12-07T00:26:12;26.30;;;10.90;;
74995;SDS011;63545;51.690;5.202;2022-12-07T00:28:49;19.80;;;10.07;;
74995;SDS011;63545;51.690;5.202;2022-12-07T00:31:19;16.98;;;9.45;;
74995;SDS011;63545;51.690;5.202;2022-12-07T00:33:47;24.63;;;10.98;;
74995;SDS011;63545;51.690;5.202;2022-12-07T00:36:14;21.17;;;9.98;;
74995;SDS011;63545;51.690;5.202;2022-12-07T00:38:40;22.83;;;10.50;;
74995;SDS011;63545;51.690;5.202;2022-12-07T00:41:18;20.57;;;10.33;;
74995;SDS011;63545;51.690;5.202;2022-12-07T00:43:46;23.45;;;10.43;;
74995;SDS011;63545;51.690;5.202;2022-12-07T00:46:12;18.77;;;9.60;;
74995;SDS011;63545;51.690;5.202;2022-12-07T00:48:38;21.35;;;9.70;;
74995;SDS011;63545;51.690;5.202;2022-12-07T00:51:04;21.98;;;10.60;;
74995;SDS011;63545;51.690;5.202;2022-12-07T00:53:30;22.63;;;10.20;;
74995;SDS011;63545;51.690;5.202;2022-12-07T00:55:55;19.03;;;10.40;;
74995;SDS011;63545;51.690;5.202;2022-12-07T00:58:21;23.37;;;11.00;;
74995;SDS011;63545;51.690;5.202;2022-12-07T01:00:48;22.88;;;10.68;;
74995;SDS011;63545;51.690;5.202;2022-12-07T01:03:14;16.95;;;8.68;;
74995;SDS011;63545;51.690;5.202;2022-12-07T01:05:40;21.50;;;10.85;;
74995;SDS011;63545;51.690;5.202;2022-12-07T01:08:06;20.50;;;9.23;;
74995;SDS011;63545;51.690;5.202;2022-12-07T01:10:31;22.30;;;10.50;;
74995;SDS011;63545;51.690;5.202;2022-12-07T01:12:57;20.17;;;10.07;;
74995;SDS011;63545;51.690;5.202;2022-12-07T01:15:23;19.50;;;9.87;;
74995;SDS011;63545;51.690;5.202;2022-12-07T01:17:49;22.95;;;9.02;;
74995;SDS011;63545;51.690;5.202;2022-12-07T01:20:14;20.27;;;9.53;;
74995;SDS011;63545;51.690;5.202;2022-12-07T01:22:41;17.73;;;8.73;;
74995;SDS011;63545;51.690;5.202;2022-12-07T01:25:07;22.13;;;8.27;;
74995;SDS011;63545;51.690;5.202;2022-12-07T01:27:36;15.43;;;7.83;;
74995;SDS011;63545;51.690;5.202;2022-12-07T01:30:02;16.10;;;7.82;;
74995;SDS011;63545;51.690;5.202;2022-12-07T01:32:29;18.17;;;8.48;;
74995;SDS011;63545;51.690;5.202;2022-12-07T01:34:54;15.47;;;8.13;;
74995;SDS011;63545;51.690;5.202;2022-12-07T01:37:20;12.67;;;7.57;;
74995;SDS011;63545;51.690;5.202;2022-12-07T01:39:48;19.85;;;8.30;;
74995;SDS011;63545;51.690;5.202;2022-12-07T01:42:13;15.57;;;7.80;;
74995;SDS011;63545;51.690;5.202;2022-12-07T01:47:42;15.65;;;7.75;;
74995;SDS011;63545;51.690;5.202;2022-12-07T01:50:09;19.67;;;7.93;;
74995;SDS011;63545;51.690;5.202;2022-12-07T01:52:35;14.53;;;7.83;;
74995;SDS011;63545;51.690;5.202;2022-12-07T01:55:03;12.80;;;7.15;;
74995;SDS011;63545;51.690;5.202;2022-12-07T01:57:30;15.90;;;7.27;;
74995;SDS011;63545;51.690;5.202;2022-12-07T01:59:57;18.52;;;7.78;;
74995;SDS011;63545;51.690;5.202;2022-12-07T02:02:23;16.33;;;7.30;;
74995;SDS011;63545;51.690;5.202;2022-12-07T02:04:52;13.57;;;7.88;;
74995;SDS011;63545;51.690;5.202;2022-12-07T02:07:18;14.32;;;7.47;;
74995;SDS011;63545;51.690;5.202;2022-12-07T02:09:44;11.27;;;7.45;;
74995;SDS011;63545;51.690;5.202;2022-12-07T02:12:10;11.07;;;7.07;;
74995;SDS011;63545;51.690;5.202;2022-12-07T02:14:35;11.13;;;5.83;;
74995;SDS011;63545;51.690;5.202;2022-12-07T02:25:52;12.15;;;6.25;;
74995;SDS011;63545;51.690;5.202;2022-12-07T02:28:31;14.32;;;5.90;;
74995;SDS011;63545;51.690;5.202;2022-12-07T02:30:58;7.10;;;3.20;;
74995;SDS011;63545;51.690;5.202;2022-12-07T02:33:29;12.77;;;5.28;;
74995;SDS011;63545;51.690;5.202;2022-12-07T02:36:02;14.65;;;4.65;;
74995;SDS011;63545;51.690;5.202;2022-12-07T02:38:35;9.10;;;3.78;;
74995;SDS011;63545;51.690;5.202;2022-12-07T02:43:34;13.10;;;3.83;;
74995;SDS011;63545;51.690;5.202;2022-12-07T02:46:25;10.95;;;3.88;;
74995;SDS011;63545;51.690;5.202;2022-12-07T02:52:01;10.88;;;3.78;;
74995;SDS011;63545;51.690;5.202;2022-12-07T02:54:26;14.40;;;4.30;;
74995;SDS011;63545;51.690;5.202;2022-12-07T03:02:03;12.40;;;4.10;;
74995;SDS011;63545;51.690;5.202;2022-12-07T03:07:10;9.48;;;3.20;;
74995;SDS011;63545;51.690;5.202;2022-12-07T03:09:51;11.00;;;3.42;;
74995;SDS011;63545;51.690;5.202;2022-12-07T03:12:25;8.77;;;2.90;;
74995;SDS011;63545;51.690;5.202;2022-12-07T03:15:03;7.50;;;2.97;;
74995;SDS011;63545;51.690;5.202;2022-12-07T03:17:32;11.33;;;3.50;;
74995;SDS011;63545;51.690;5.202;2022-12-07T03:20:02;9.32;;;2.75;;
74995;SDS011;63545;51.690;5.202;2022-12-07T03:22:29;5.72;;;2.42;;
74995;SDS011;63545;51.690;5.202;2022-12-07T03:25:00;10.40;;;2.65;;
74995;SDS011;63545;51.690;5.202;2022-12-07T03:27:31;11.98;;;2.85;;
74995;SDS011;63545;51.690;5.202;2022-12-07T03:30:00;6.63;;;2.50;;
74995;SDS011;63545;51.690;5.202;2022-12-07T03:35:24;8.93;;;2.65;;
74995;SDS011;63545;51.690;5.202;2022-12-07T03:43:00;7.05;;;2.47;;
74995;SDS011;63545;51.690;5.202;2022-12-07T03:45:31;8.23;;;2.90;;
74995;SDS011;63545;51.690;5.202;2022-12-07T03:50:56;6.68;;;2.35;;
74995;SDS011;63545;51.690;5.202;2022-12-07T03:53:34;11.23;;;2.60;;
74995;SDS011;63545;51.690;5.202;2022-12-07T03:56:02;8.98;;;2.30;;
74995;SDS011;63545;51.690;5.202;2022-12-07T03:58:28;10.40;;;2.00;;
74995;SDS011;63545;51.690;5.202;2022-12-07T04:00:55;13.13;;;2.28;;
74995;SDS011;63545;51.690;5.202;2022-12-07T04:03:20;9.43;;;1.83;;
74995;SDS011;63545;51.690;5.202;2022-12-07T04:05:45;9.93;;;2.10;;
74995;SDS011;63545;51.690;5.202;2022-12-07T04:08:11;7.33;;;1.73;;
74995;SDS011;63545;51.690;5.202;2022-12-07T04:10:36;5.90;;;1.85;;
74995;SDS011;63545;51.690;5.202;2022-12-07T04:13:01;7.50;;;1.70;;
74995;SDS011;63545;51.690;5.202;2022-12-07T04:15:27;10.37;;;2.10;;
74995;SDS011;63545;51.690;5.202;2022-12-07T04:17:52;13.43;;;2.30;;
74995;SDS011;63545;51.690;5.202;2022-12-07T04:20:18;11.38;;;2.58;;
74995;SDS011;63545;51.690;5.202;2022-12-07T04:22:44;10.43;;;2.37;;
74995;SDS011;63545;51.690;5.202;2022-12-07T04:25:09;11.03;;;2.57;;
74995;SDS011;63545;51.690;5.202;2022-12-07T04:27:34;13.40;;;2.30;;
74995;SDS011;63545;51.690;5.202;2022-12-07T04:30:00;7.33;;;2.13;;
74995;SDS011;63545;51.690;5.202;2022-12-07T04:32:25;11.10;;;2.38;;
74995;SDS011;63545;51.690;5.202;2022-12-07T04:34:51;8.93;;;2.37;;
74995;SDS011;63545;51.690;5.202;2022-12-07T04:37:16;9.40;;;2.37;;
74995;SDS011;63545;51.690;5.202;2022-12-07T04:39:42;9.65;;;2.65;;
74995;SDS011;63545;51.690;5.202;2022-12-07T04:42:09;16.90;;;3.13;;
74995;SDS011;63545;51.690;5.202;2022-12-07T04:44:35;15.32;;;3.00;;
74995;SDS011;63545;51.690;5.202;2022-12-07T04:47:00;9.07;;;2.97;;
74995;SDS011;63545;51.690;5.202;2022-12-07T04:49:25;7.77;;;3.13;;
74995;SDS011;63545;51.690;5.202;2022-12-07T04:51:51;12.30;;;3.37;;
74995;SDS011;63545;51.690;5.202;2022-12-07T04:54:16;6.50;;;2.70;;
74995;SDS011;63545;51.690;5.202;2022-12-07T04:56:42;9.65;;;3.00;;
74995;SDS011;63545;51.690;5.202;2022-12-07T04:59:07;10.13;;;3.40;;
74995;SDS011;63545;51.690;5.202;2022-12-07T05:01:34;10.27;;;3.58;;
74995;SDS011;63545;51.690;5.202;2022-12-07T05:03:59;9.23;;;3.57;;
74995;SDS011;63545;51.690;5.202;2022-12-07T05:06:25;14.57;;;4.07;;
74995;SDS011;63545;51.690;5.202;2022-12-07T05:08:50;16.03;;;4.63;;
74995;SDS011;63545;51.690;5.202;2022-12-07T05:11:16;13.43;;;4.10;;
74995;SDS011;63545;51.690;5.202;2022-12-07T05:14:01;14.30;;;4.50;;
74995;SDS011;63545;51.690;5.202;2022-12-07T05:16:27;13.60;;;4.10;;
74995;SDS011;63545;51.690;5.202;2022-12-07T05:18:53;10.93;;;4.50;;
74995;SDS011;63545;51.690;5.202;2022-12-07T05:21:19;16.83;;;4.60;;
74995;SDS011;63545;51.690;5.202;2022-12-07T05:23:45;12.98;;;5.30;;
74995;SDS011;63545;51.690;5.202;2022-12-07T05:26:10;17.07;;;5.60;;
74995;SDS011;63545;51.690;5.202;2022-12-07T05:28:35;11.97;;;5.30;;
74995;SDS011;63545;51.690;5.202;2022-12-07T05:31:01;14.27;;;5.45;;
74995;SDS011;63545;51.690;5.202;2022-12-07T05:33:26;13.60;;;5.20;;
74995;SDS011;63545;51.690;5.202;2022-12-07T05:35:52;10.40;;;5.10;;
74995;SDS011;63545;51.690;5.202;2022-12-07T05:38:17;8.87;;;5.77;;
74995;SDS011;63545;51.690;5.202;2022-12-07T05:40:42;12.83;;;5.73;;
74995;SDS011;63545;51.690;5.202;2022-12-07T05:43:08;18.27;;;7.20;;
74995;SDS011;63545;51.690;5.202;2022-12-07T05:45:33;16.60;;;6.83;;
74995;SDS011;63545;51.690;5.202;2022-12-07T05:47:58;17.17;;;6.47;;
74995;SDS011;63545;51.690;5.202;2022-12-07T05:50:24;12.20;;;6.07;;
74995;SDS011;63545;51.690;5.202;2022-12-07T05:52:49;13.23;;;6.60;;
74995;SDS011;63545;51.690;5.202;2022-12-07T05:55:14;18.23;;;7.40;;
74995;SDS011;63545;51.690;5.202;2022-12-07T05:57:40;22.73;;;7.40;;
74995;SDS011;63545;51.690;5.202;2022-12-07T06:00:25;16.35;;;7.82;;
74995;SDS011;63545;51.690;5.202;2022-12-07T06:02:50;19.67;;;8.90;;
74995;SDS011;63545;51.690;5.202;2022-12-07T06:05:16;12.40;;;6.20;;
74995;SDS011;63545;51.690;5.202;2022-12-07T06:07:41;17.53;;;7.77;;
74995;SDS011;63545;51.690;5.202;2022-12-07T06:10:07;16.40;;;8.90;;
74995;SDS011;63545;51.690;5.202;2022-12-07T06:12:32;16.67;;;7.50;;
74995;SDS011;63545;51.690;5.202;2022-12-07T06:15:00;17.25;;;7.15;;
74995;SDS011;63545;51.690;5.202;2022-12-07T06:17:26;17.33;;;8.47;;
74995;SDS011;63545;51.690;5.202;2022-12-07T06:19:51;16.70;;;8.87;;
74995;SDS011;63545;51.690;5.202;2022-12-07T06:22:16;17.30;;;8.93;;
74995;SDS011;63545;51.690;5.202;2022-12-07T06:24:42;20.00;;;8.85;;
74995;SDS011;63545;51.690;5.202;2022-12-07T06:27:08;18.57;;;8.70;;
74995;SDS011;63545;51.690;5.202;2022-12-07T06:29:33;19.52;;;8.63;;
74995;SDS011;63545;51.690;5.202;2022-12-07T06:31:59;14.90;;;7.87;;
74995;SDS011;63545;51.690;5.202;2022-12-07T06:34:25;18.80;;;8.83;;
74995;SDS011;63545;51.690;5.202;2022-12-07T06:36:51;13.90;;;8.88;;
74995;SDS011;63545;51.690;5.202;2022-12-07T06:39:20;19.10;;;9.10;;
74995;SDS011;63545;51.690;5.202;2022-12-07T06:41:46;22.48;;;8.93;;
74995;SDS011;63545;51.690;5.202;2022-12-07T06:44:12;18.67;;;9.37;;
74995;SDS011;63545;51.690;5.202;2022-12-07T06:46:37;19.87;;;9.97;;
74995;SDS011;63545;51.690;5.202;2022-12-07T06:49:03;18.10;;;10.10;;
74995;SDS011;63545;51.690;5.202;2022-12-07T06:51:29;20.58;;;10.05;;
74995;SDS011;63545;51.690;5.202;2022-12-07T06:53:55;17.90;;;9.80;;
74995;SDS011;63545;51.690;5.202;2022-12-07T06:56:20;16.27;;;9.13;;
74995;SDS011;63545;51.690;5.202;2022-12-07T06:58:45;21.90;;;10.10;;
74995;SDS011;63545;51.690;5.202;2022-12-07T07:01:14;20.50;;;9.13;;
74995;SDS011;63545;51.690;5.202;2022-12-07T07:03:41;20.10;;;9.05;;
74995;SDS011;63545;51.690;5.202;2022-12-07T07:06:08;21.45;;;9.00;;
74995;SDS011;63545;51.690;5.202;2022-12-07T07:08:34;20.57;;;9.60;;
74995;SDS011;63545;51.690;5.202;2022-12-07T07:11:00;16.48;;;8.82;;
74995;SDS011;63545;51.690;5.202;2022-12-07T07:13:26;18.50;;;9.20;;
74995;SDS011;63545;51.690;5.202;2022-12-07T07:15:51;18.48;;;9.18;;
74995;SDS011;63545;51.690;5.202;2022-12-07T07:18:17;15.77;;;9.30;;
74995;SDS011;63545;51.690;5.202;2022-12-07T07:20:42;23.83;;;9.67;;
74995;SDS011;63545;51.690;5.202;2022-12-07T07:23:07;27.03;;;9.37;;
74995;SDS011;63545;51.690;5.202;2022-12-07T07:25:33;18.52;;;9.52;;
74995;SDS011;63545;51.690;5.202;2022-12-07T07:27:58;19.03;;;8.63;;
74995;SDS011;63545;51.690;5.202;2022-12-07T07:30:24;22.47;;;8.50;;
74995;SDS011;63545;51.690;5.202;2022-12-07T07:32:50;19.95;;;8.32;;
74995;SDS011;63545;51.690;5.202;2022-12-07T07:35:15;15.90;;;8.23;;
74995;SDS011;63545;51.690;5.202;2022-12-07T07:37:40;15.77;;;8.50;;
74995;SDS011;63545;51.690;5.202;2022-12-07T07:40:06;18.07;;;8.00;;
74995;SDS011;63545;51.690;5.202;2022-12-07T07:42:32;22.15;;;8.13;;
74995;SDS011;63545;51.690;5.202;2022-12-07T07:44:58;19.50;;;8.30;;
74995;SDS011;63545;51.690;5.202;2022-12-07T07:47:23;16.63;;;8.17;;
74995;SDS011;63545;51.690;5.202;2022-12-07T07:49:48;22.20;;;9.23;;
74995;SDS011;63545;51.690;5.202;2022-12-07T07:52:14;15.48;;;9.25;;
74995;SDS011;63545;51.690;5.202;2022-12-07T07:54:39;24.17;;;9.10;;
74995;SDS011;63545;51.690;5.202;2022-12-07T07:57:04;21.47;;;9.80;;
74995;SDS011;63545;51.690;5.202;2022-12-07T07:59:29;26.77;;;9.97;;
74995;SDS011;63545;51.690;5.202;2022-12-07T08:01:55;23.33;;;9.57;;
74995;SDS011;63545;51.690;5.202;2022-12-07T08:04:20;26.63;;;9.77;;
74995;SDS011;63545;51.690;5.202;2022-12-07T08:06:45;15.37;;;6.73;;
74995;SDS011;63545;51.690;5.202;2022-12-07T08:09:11;14.27;;;6.40;;
74995;SDS011;63545;51.690;5.202;2022-12-07T08:11:37;33.28;;;9.50;;
74995;SDS011;63545;51.690;5.202;2022-12-07T08:14:02;20.40;;;8.83;;
74995;SDS011;63545;51.690;5.202;2022-12-07T08:16:28;24.92;;;8.48;;
74995;SDS011;63545;51.690;5.202;2022-12-07T08:18:53;19.87;;;8.03;;
74995;SDS011;63545;51.690;5.202;2022-12-07T08:21:19;23.37;;;7.60;;
74995;SDS011;63545;51.690;5.202;2022-12-07T08:23:44;22.53;;;7.17;;
74995;SDS011;63545;51.690;5.202;2022-12-07T08:26:10;15.23;;;6.45;;
74995;SDS011;63545;51.690;5.202;2022-12-07T08:28:37;21.40;;;6.93;;
74995;SDS011;63545;51.690;5.202;2022-12-07T08:31:04;20.70;;;6.68;;
74995;SDS011;63545;51.690;5.202;2022-12-07T08:33:31;21.10;;;6.03;;
74995;SDS011;63545;51.690;5.202;2022-12-07T08:36:00;18.50;;;5.75;;
74995;SDS011;63545;51.690;5.202;2022-12-07T08:38:26;14.90;;;6.05;;
74995;SDS011;63545;51.690;5.202;2022-12-07T08:40:55;15.80;;;5.90;;
74995;SDS011;63545;51.690;5.202;2022-12-07T08:43:22;13.73;;;5.78;;
74995;SDS011;63545;51.690;5.202;2022-12-07T08:45:53;15.30;;;5.77;;
74995;SDS011;63545;51.690;5.202;2022-12-07T08:48:29;15.65;;;6.22;;
74995;SDS011;63545;51.690;5.202;2022-12-07T08:50:55;13.50;;;6.53;;
74995;SDS011;63545;51.690;5.202;2022-12-07T08:53:20;15.17;;;5.90;;
74995;SDS011;63545;51.690;5.202;2022-12-07T08:55:46;17.23;;;6.55;;
74995;SDS011;63545;51.690;5.202;2022-12-07T08:58:12;17.93;;;6.43;;
74995;SDS011;63545;51.690;5.202;2022-12-07T09:00:37;16.43;;;6.83;;
74995;SDS011;63545;51.690;5.202;2022-12-07T09:03:03;19.00;;;7.60;;
74995;SDS011;63545;51.690;5.202;2022-12-07T09:05:28;18.53;;;8.00;;
74995;SDS011;63545;51.690;5.202;2022-12-07T09:07:54;17.70;;;7.50;;
74995;SDS011;63545;51.690;5.202;2022-12-07T09:10:21;17.60;;;7.57;;
74995;SDS011;63545;51.690;5.202;2022-12-07T09:12:47;20.10;;;7.97;;
74995;SDS011;63545;51.690;5.202;2022-12-07T09:15:12;14.97;;;7.77;;
74995;SDS011;63545;51.690;5.202;2022-12-07T09:17:38;13.87;;;8.07;;
74995;SDS011;63545;51.690;5.202;2022-12-07T09:20:06;18.90;;;8.57;;
74995;SDS011;63545;51.690;5.202;2022-12-07T09:22:32;16.63;;;8.73;;
74995;SDS011;63545;51.690;5.202;2022-12-07T09:24:58;18.92;;;8.90;;
74995;SDS011;63545;51.690;5.202;2022-12-07T09:27:24;21.20;;;8.70;;
74995;SDS011;63545;51.690;5.202;2022-12-07T09:29:49;16.20;;;9.17;;
74995;SDS011;63545;51.690;5.202;2022-12-07T09:32:15;20.90;;;9.03;;
74995;SDS011;63545;51.690;5.202;2022-12-07T09:34:40;18.70;;;8.80;;
74995;SDS011;63545;51.690;5.202;2022-12-07T09:37:05;19.42;;;8.30;;
74995;SDS011;63545;51.690;5.202;2022-12-07T09:39:31;14.27;;;7.47;;
74995;SDS011;63545;51.690;5.202;2022-12-07T09:41:57;13.13;;;7.85;;
74995;SDS011;63545;51.690;5.202;2022-12-07T09:44:24;16.52;;;6.85;;
74995;SDS011;63545;51.690;5.202;2022-12-07T09:46:50;18.13;;;7.00;;
74995;SDS011;63545;51.690;5.202;2022-12-07T09:49:19;14.52;;;7.60;;
74995;SDS011;63545;51.690;5.202;2022-12-07T09:51:46;16.23;;;7.00;;
74995;SDS011;63545;51.690;5.202;2022-12-07T09:54:12;25.50;;;8.15;;
74995;SDS011;63545;51.690;5.202;2022-12-07T09:56:38;15.73;;;7.67;;
74995;SDS011;63545;51.690;5.202;2022-12-07T09:59:04;19.92;;;8.20;;
74995;SDS011;63545;51.690;5.202;2022-12-07T10:01:30;22.33;;;8.33;;
74995;SDS011;63545;51.690;5.202;2022-12-07T10:04:10;17.77;;;8.40;;
74995;SDS011;63545;51.690;5.202;2022-12-07T10:06:39;25.15;;;8.02;;
74995;SDS011;63545;51.690;5.202;2022-12-07T10:09:14;18.00;;;7.90;;
74995;SDS011;63545;51.690;5.202;2022-12-07T10:12:00;16.60;;;8.05;;
74995;SDS011;63545;51.690;5.202;2022-12-07T10:14:27;16.17;;;7.70;;
74995;SDS011;63545;51.690;5.202;2022-12-07T10:16:57;14.43;;;7.75;;
74995;SDS011;63545;51.690;5.202;2022-12-07T10:19:24;20.77;;;8.23;;
74995;SDS011;63545;51.690;5.202;2022-12-07T10:24:28;22.40;;;7.85;;
74995;SDS011;63545;51.690;5.202;2022-12-07T10:26:54;18.60;;;8.40;;
74995;SDS011;63545;51.690;5.202;2022-12-07T10:29:29;17.33;;;8.23;;
74995;SDS011;63545;51.690;5.202;2022-12-07T10:34:30;14.70;;;6.72;;
74995;SDS011;63545;51.690;5.202;2022-12-07T10:37:12;12.57;;;6.88;;
74995;SDS011;63545;51.690;5.202;2022-12-07T10:42:26;16.67;;;6.22;;
74995;SDS011;63545;51.690;5.202;2022-12-07T10:54:01;14.43;;;5.50;;
74995;SDS011;63545;51.690;5.202;2022-12-07T10:59:51;14.50;;;4.70;;
74995;SDS011;63545;51.690;5.202;2022-12-07T11:07:43;14.47;;;6.13;;
74995;SDS011;63545;51.690;5.202;2022-12-07T11:18:19;14.55;;;5.05;;
74995;SDS011;63545;51.690;5.202;2022-12-07T11:21:06;11.03;;;4.87;;
74995;SDS011;63545;51.690;5.202;2022-12-07T11:39:32;12.55;;;4.00;;
74995;SDS011;63545;51.690;5.202;2022-12-07T11:42:16;13.45;;;5.43;;
74995;SDS011;63545;51.690;5.202;2022-12-07T11:44:49;15.82;;;4.22;;
74995;SDS011;63545;51.690;5.202;2022-12-07T11:53:03;16.00;;;4.22;;
74995;SDS011;63545;51.690;5.202;2022-12-07T11:55:32;13.40;;;5.68;;
74995;SDS011;63545;51.690;5.202;2022-12-07T12:03:56;23.27;;;13.37;;
74995;SDS011;63545;51.690;5.202;2022-12-07T12:06:26;9.50;;;3.53;;
74995;SDS011;63545;51.690;5.202;2022-12-07T12:08:56;25.77;;;10.53;;
74995;SDS011;63545;51.690;5.202;2022-12-07T12:14:30;9.02;;;3.03;;
74995;SDS011;63545;51.690;5.202;2022-12-07T12:22:54;4.47;;;2.50;;
74995;SDS011;63545;51.690;5.202;2022-12-07T12:25:26;8.32;;;2.30;;
74995;SDS011;63545;51.690;5.202;2022-12-07T12:27:55;5.97;;;3.30;;
74995;SDS011;63545;51.690;5.202;2022-12-07T12:30:35;9.82;;;4.07;;
74995;SDS011;63545;51.690;5.202;2022-12-07T12:33:03;13.20;;;3.90;;
74995;SDS011;63545;51.690;5.202;2022-12-07T12:35:31;9.50;;;4.50;;
74995;SDS011;63545;51.690;5.202;2022-12-07T12:38:24;7.22;;;2.70;;
74995;SDS011;63545;51.690;5.202;2022-12-07T12:40:55;6.85;;;2.20;;
74995;SDS011;63545;51.690;5.202;2022-12-07T12:51:47;6.43;;;1.73;;
74995;SDS011;63545;51.690;5.202;2022-12-07T12:59:21;5.57;;;1.98;;
74995;SDS011;63545;51.690;5.202;2022-12-07T13:04:49;11.33;;;2.40;;
74995;SDS011;63545;51.690;5.202;2022-12-07T13:13:00;10.05;;;2.63;;
74995;SDS011;63545;51.690;5.202;2022-12-07T13:28:46;7.22;;;2.20;;
74995;SDS011;63545;51.690;5.202;2022-12-07T13:31:30;12.33;;;2.70;;
74995;SDS011;63545;51.690;5.202;2022-12-07T13:33:57;6.55;;;2.30;;
74995;SDS011;63545;51.690;5.202;2022-12-07T13:36:23;5.73;;;2.37;;
74995;SDS011;63545;51.690;5.202;2022-12-07T13:38:55;7.47;;;2.92;;
74995;SDS011;63545;51.690;5.202;2022-12-07T13:41:25;5.45;;;1.83;;
74995;SDS011;63545;51.690;5.202;2022-12-07T13:44:11;5.20;;;1.70;;
74995;SDS011;63545;51.690;5.202;2022-12-07T13:49:25;3.38;;;1.50;;
74995;SDS011;63545;51.690;5.202;2022-12-07T13:51:52;4.22;;;2.00;;
74995;SDS011;63545;51.690;5.202;2022-12-07T13:54:19;4.53;;;1.55;;
74995;SDS011;63545;51.690;5.202;2022-12-07T13:56:47;11.30;;;5.13;;
74995;SDS011;63545;51.690;5.202;2022-12-07T13:59:16;15.53;;;8.83;;
74995;SDS011;63545;51.690;5.202;2022-12-07T14:01:50;5.60;;;2.00;;
74995;SDS011;63545;51.690;5.202;2022-12-07T14:04:16;5.47;;;1.70;;
74995;SDS011;63545;51.690;5.202;2022-12-07T14:06:49;3.47;;;1.50;;
74995;SDS011;63545;51.690;5.202;2022-12-07T14:09:20;8.30;;;5.05;;
74995;SDS011;63545;51.690;5.202;2022-12-07T14:11:48;6.37;;;3.13;;
74995;SDS011;63545;51.690;5.202;2022-12-07T14:14:35;7.25;;;3.30;;
74995;SDS011;63545;51.690;5.202;2022-12-07T14:17:15;5.47;;;2.20;;
74995;SDS011;63545;51.690;5.202;2022-12-07T14:19:43;4.68;;;1.90;;
74995;SDS011;63545;51.690;5.202;2022-12-07T14:22:23;6.45;;;3.50;;
74995;SDS011;63545;51.690;5.202;2022-12-07T14:25:23;8.87;;;3.40;;
74995;SDS011;63545;51.690;5.202;2022-12-07T14:27:53;5.60;;;1.75;;
74995;SDS011;63545;51.690;5.202;2022-12-07T14:30:22;4.15;;;1.67;;
74995;SDS011;63545;51.690;5.202;2022-12-07T14:32:48;3.65;;;1.70;;
74995;SDS011;63545;51.690;5.202;2022-12-07T14:35:17;2.00;;;1.17;;
74995;SDS011;63545;51.690;5.202;2022-12-07T14:37:44;8.53;;;2.20;;
74995;SDS011;63545;51.690;5.202;2022-12-07T14:40:13;7.82;;;1.95;;
74995;SDS011;63545;51.690;5.202;2022-12-07T14:42:44;3.33;;;1.55;;
74995;SDS011;63545;51.690;5.202;2022-12-07T14:45:15;5.22;;;2.10;;
74995;SDS011;63545;51.690;5.202;2022-12-07T14:47:43;3.50;;;1.90;;
74995;SDS011;63545;51.690;5.202;2022-12-07T14:50:11;2.83;;;1.60;;
74995;SDS011;63545;51.690;5.202;2022-12-07T14:52:37;2.53;;;1.60;;
74995;SDS011;63545;51.690;5.202;2022-12-07T14:55:04;3.28;;;1.67;;
74995;SDS011;63545;51.690;5.202;2022-12-07T14:57:29;4.63;;;1.80;;
74995;SDS011;63545;51.690;5.202;2022-12-07T14:59:55;4.57;;;1.73;;
74995;SDS011;63545;51.690;5.202;2022-12-07T15:02:20;4.33;;;1.70;;
74995;SDS011;63545;51.690;5.202;2022-12-07T15:04:45;3.30;;;1.83;;
74995;SDS011;63545;51.690;5.202;2022-12-07T15:07:20;3.33;;;1.50;;
74995;SDS011;63545;51.690;5.202;2022-12-07T15:09:46;2.63;;;1.83;;
74995;SDS011;63545;51.690;5.202;2022-12-07T15:12:12;6.15;;;1.55;;
74995;SDS011;63545;51.690;5.202;2022-12-07T15:14:37;3.80;;;1.60;;
74995;SDS011;63545;51.690;5.202;2022-12-07T15:17:02;3.53;;;1.83;;
74995;SDS011;63545;51.690;5.202;2022-12-07T15:19:28;5.47;;;2.10;;
74995;SDS011;63545;51.690;5.202;2022-12-07T15:21:54;4.60;;;1.90;;
74995;SDS011;63545;51.690;5.202;2022-12-07T15:24:19;5.57;;;1.70;;
74995;SDS011;63545;51.690;5.202;2022-12-07T15:26:45;4.20;;;1.90;;
74995;SDS011;63545;51.690;5.202;2022-12-07T15:29:10;3.05;;;1.90;;
74995;SDS011;63545;51.690;5.202;2022-12-07T15:31:36;5.10;;;1.70;;
74995;SDS011;63545;51.690;5.202;2022-12-07T15:34:02;3.13;;;1.70;;
74995;SDS011;63545;51.690;5.202;2022-12-07T15:36:28;3.93;;;1.90;;
74995;SDS011;63545;51.690;5.202;2022-12-07T15:38:55;6.03;;;2.15;;
74995;SDS011;63545;51.690;5.202;2022-12-07T15:41:21;4.18;;;2.00;;
74995;SDS011;63545;51.690;5.202;2022-12-07T15:43:47;3.13;;;2.20;;
74995;SDS011;63545;51.690;5.202;2022-12-07T15:46:38;3.25;;;1.98;;
74995;SDS011;63545;51.690;5.202;2022-12-07T15:49:09;4.72;;;1.98;;
74995;SDS011;63545;51.690;5.202;2022-12-07T15:51:36;5.03;;;2.33;;
74995;SDS011;63545;51.690;5.202;2022-12-07T15:54:03;4.70;;;2.10;;
74995;SDS011;63545;51.690;5.202;2022-12-07T15:56:29;6.03;;;2.30;;
74995;SDS011;63545;51.690;5.202;2022-12-07T15:58:55;4.03;;;2.17;;
74995;SDS011;63545;51.690;5.202;2022-12-07T16:01:21;3.33;;;2.20;;
74995;SDS011;63545;51.690;5.202;2022-12-07T16:03:46;4.93;;;2.33;;
74995;SDS011;63545;51.690;5.202;2022-12-07T16:06:14;8.37;;;2.37;;
74995;SDS011;63545;51.690;5.202;2022-12-07T16:08:44;6.82;;;2.60;;
74995;SDS011;63545;51.690;5.202;2022-12-07T16:11:10;7.82;;;2.90;;
74995;SDS011;63545;51.690;5.202;2022-12-07T16:13:35;5.23;;;2.70;;
74995;SDS011;63545;51.690;5.202;2022-12-07T16:16:08;6.20;;;2.90;;
74995;SDS011;63545;51.690;5.202;2022-12-07T16:18:35;8.60;;;2.92;;
74995;SDS011;63545;51.690;5.202;2022-12-07T16:21:01;4.53;;;3.27;;
74995;SDS011;63545;51.690;5.202;2022-12-07T16:23:26;5.17;;;3.30;;
74995;SDS011;63545;51.690;5.202;2022-12-07T16:25:52;5.82;;;3.40;;
74995;SDS011;63545;51.690;5.202;2022-12-07T16:28:17;5.37;;;3.50;;
74995;SDS011;63545;51.690;5.202;2022-12-07T16:30:42;7.53;;;3.63;;
74995;SDS011;63545;51.690;5.202;2022-12-07T16:33:08;6.37;;;3.87;;
74995;SDS011;63545;51.690;5.202;2022-12-07T16:35:33;5.67;;;3.77;;
74995;SDS011;63545;51.690;5.202;2022-12-07T16:37:58;8.27;;;4.13;;
74995;SDS011;63545;51.690;5.202;2022-12-07T16:40:24;10.50;;;4.40;;
74995;SDS011;63545;51.690;5.202;2022-12-07T16:42:49;7.37;;;5.00;;
74995;SDS011;63545;51.690;5.202;2022-12-07T16:45:14;8.27;;;4.60;;
74995;SDS011;63545;51.690;5.202;2022-12-07T16:47:40;12.90;;;5.03;;
74995;SDS011;63545;51.690;5.202;2022-12-07T16:50:06;10.65;;;5.40;;
74995;SDS011;63545;51.690;5.202;2022-12-07T16:52:32;9.33;;;4.60;;
74995;SDS011;63545;51.690;5.202;2022-12-07T16:54:58;7.82;;;5.38;;
74995;SDS011;63545;51.690;5.202;2022-12-07T16:57:23;11.53;;;5.53;;
74995;SDS011;63545;51.690;5.202;2022-12-07T16:59:49;8.83;;;4.70;;
74995;SDS011;63545;51.690;5.202;2022-12-07T17:02:14;8.77;;;4.78;;
74995;SDS011;63545;51.690;5.202;2022-12-07T17:04:40;8.60;;;4.80;;
74995;SDS011;63545;51.690;5.202;2022-12-07T17:07:07;12.40;;;4.38;;
74995;SDS011;63545;51.690;5.202;2022-12-07T17:09:33;9.10;;;4.83;;